createdAt,value
2015-11-04T00:00:34.369Z,91.3
2015-11-04T00:01:34.295Z,90.9
2015-11-04T00:02:34.250Z,90.5
2015-11-04T00:03:34.190Z,91
2015-11-04T00:04:34.115Z,91.7
2015-11-04T00:05:34.070Z,91
2015-11-04T00:06:34.011Z,90.3
2015-11-04T00:07:33.951Z,91.4
2015-11-04T00:08:33.892Z,92.1
2015-11-04T00:09:33.832Z,92
2015-11-04T00:10:33.772Z,91.3
2015-11-04T00:11:33.712Z,91.2
2015-11-04T00:12:33.652Z,90.9
2015-11-04T00:13:33.592Z,90.7
2015-11-04T00:14:33.783Z,90.3
2015-11-04T00:15:33.473Z,90
2015-11-04T00:16:33.428Z,90.7
2015-11-04T00:17:33.353Z,90.3
2015-11-04T00:18:33.293Z,89.1
2015-11-04T00:19:33.233Z,89.7
2015-11-04T00:20:33.174Z,90.2
2015-11-04T00:21:33.130Z,91.1
2015-11-04T00:22:33.070Z,91.2
2015-11-04T00:23:33.025Z,91.9
2015-11-04T00:24:33.185Z,91.2
2015-11-04T00:25:32.891Z,91.2
2015-11-04T00:26:32.831Z,91.3
2015-11-04T00:27:32.772Z,91
2015-11-04T00:28:32.711Z,90.2
2015-11-04T00:29:32.652Z,90.5
2015-11-04T00:30:32.827Z,90.2
2015-11-04T00:31:32.532Z,89.1
2015-11-04T00:32:32.504Z,90
2015-11-04T00:33:32.428Z,90.9
2015-11-04T00:34:32.369Z,91.2
2015-11-04T00:35:32.293Z,91.6
2015-11-04T00:36:32.249Z,91.9
2015-11-04T00:37:32.189Z,91.8
2015-11-04T00:38:32.114Z,91.7
2015-11-04T00:39:32.070Z,91.5
2015-11-04T00:40:31.994Z,91.2
2015-11-04T00:41:31.934Z,91
2015-11-04T00:42:31.875Z,91.1
2015-11-04T00:43:31.815Z,91.6
2015-11-04T00:44:31.755Z,92.1
2015-11-04T00:45:31.696Z,92.1
2015-11-04T00:46:31.651Z,92.1
2015-11-04T00:47:31.623Z,91.3
2015-11-04T00:48:31.532Z,90.6
2015-11-04T00:49:31.471Z,90.1
2015-11-04T00:50:31.413Z,89.8
2015-11-04T00:51:31.587Z,90.4
2015-11-04T00:52:31.292Z,90.6
2015-11-04T00:53:31.467Z,91.7
2015-11-04T00:54:31.189Z,90.5
2015-11-04T00:55:31.110Z,90.9
2015-11-04T00:56:31.051Z,91
2015-11-04T00:57:30.990Z,90.9
2015-11-04T00:58:30.931Z,91.1
2015-11-04T00:59:30.871Z,91.4
2015-11-04T01:00:30.811Z,91.8
2015-11-04T01:01:30.767Z,92.2
2015-11-04T01:02:30.927Z,92.1
2015-11-04T01:03:30.632Z,91.4
2015-11-04T01:04:30.573Z,90.3
2015-11-04T01:05:30.513Z,90.6
2015-11-04T01:06:30.469Z,91.5
2015-11-04T01:07:30.393Z,93
2015-11-04T01:08:30.584Z,92.9
2015-11-04T01:09:30.306Z,92.8
2015-11-04T01:10:30.230Z,92.9
2015-11-04T01:11:30.170Z,92.5
2015-11-04T01:12:30.111Z,91.4
2015-11-04T01:13:30.050Z,91
2015-11-04T01:14:29.975Z,91
2015-11-04T01:15:29.915Z,90.9
2015-11-04T01:16:29.871Z,89.9
2015-11-04T01:17:29.812Z,89.6
2015-11-04T01:18:29.737Z,89.8
2015-11-04T01:19:29.676Z,90.8
2015-11-04T01:20:29.617Z,90.6
2015-11-04T01:21:29.572Z,90.2
2015-11-04T01:22:29.514Z,90.8
2015-11-04T01:23:29.687Z,90.7
2015-11-04T01:24:29.394Z,91.4
2015-11-04T01:25:29.334Z,91.9
2015-11-04T01:26:29.274Z,91.1
2015-11-04T01:27:29.215Z,91.2
2015-11-04T01:28:29.155Z,90.8
2015-11-04T01:29:29.095Z,90.7
2015-11-04T01:30:29.035Z,90.5
2015-11-04T01:31:28.975Z,90.2
2015-11-04T01:32:28.916Z,90.7
2015-11-04T01:33:28.856Z,90.5
2015-11-04T01:34:28.797Z,90.6
2015-11-04T01:35:28.736Z,90.5
2015-11-04T01:36:28.692Z,90.1
2015-11-04T01:37:28.616Z,90
2015-11-04T01:38:28.557Z,89.7
2015-11-04T01:39:28.497Z,90
2015-11-04T01:40:28.435Z,89.8
2015-11-04T01:41:28.374Z,90.3
2015-11-04T01:42:28.174Z,90.1
2015-11-04T01:43:28.271Z,89.9
2015-11-04T01:44:28.211Z,89.9
2015-11-04T01:45:28.135Z,90.4
2015-11-04T01:46:28.076Z,90.2
2015-11-04T01:47:28.016Z,90.1
2015-11-04T01:48:27.957Z,90.2
2015-11-04T01:49:27.928Z,90.1
2015-11-04T01:50:27.852Z,89.8
2015-11-04T01:51:27.793Z,89.1
2015-11-04T01:52:27.983Z,88.7
2015-11-04T01:53:27.673Z,88.8
2015-11-04T01:54:27.598Z,88.6
2015-11-04T01:55:27.397Z,88.7
2015-11-04T01:56:27.493Z,89.5
2015-11-04T01:57:27.434Z,88.8
2015-11-04T01:58:27.374Z,89.6
2015-11-04T01:59:27.315Z,88.9
2015-11-04T02:00:27.255Z,88.8
2015-11-04T02:01:27.196Z,89.9
2015-11-04T02:02:27.151Z,90.2
2015-11-04T02:03:27.091Z,89.4
2015-11-04T02:04:27.016Z,90
2015-11-04T02:05:26.971Z,89.9
2015-11-04T02:06:26.912Z,90.6
2015-11-04T02:07:26.837Z,90
2015-11-04T02:08:26.777Z,89.1
2015-11-04T02:09:26.717Z,88.3
2015-11-04T02:10:26.658Z,89
2015-11-04T02:11:26.598Z,88.9
2015-11-04T02:12:26.554Z,88.7
2015-11-04T02:13:26.494Z,90.1
2015-11-04T02:14:26.449Z,91.1
2015-11-04T02:15:26.359Z,91.7
2015-11-04T02:16:26.315Z,92.1
2015-11-04T02:17:26.255Z,92.4
2015-11-04T02:18:26.210Z,92.5
2015-11-04T02:19:26.167Z,92.6
2015-11-04T02:20:26.091Z,92.8
2015-11-04T02:21:26.047Z,93.2
2015-11-04T02:22:25.987Z,93.7
2015-11-04T02:23:25.928Z,93.8
2015-11-04T02:24:25.868Z,93.8
2015-11-04T02:25:25.792Z,93.4
2015-11-04T02:26:25.748Z,92.7
2015-11-04T02:27:25.689Z,91.2
2015-11-04T02:28:25.848Z,91.1
2015-11-04T02:29:25.567Z,91.2
2015-11-04T02:30:25.506Z,91.1
2015-11-04T02:31:25.447Z,91.4
2015-11-04T02:32:25.621Z,91.2
2015-11-04T02:33:25.328Z,90.9
2015-11-04T02:34:25.267Z,90.7
2015-11-04T02:35:25.208Z,90.7
2015-11-04T02:36:25.148Z,91.1
2015-11-04T02:37:24.948Z,90.6
2015-11-04T02:38:25.028Z,90.7
2015-11-04T02:39:24.969Z,90.5
2015-11-04T02:40:24.925Z,90.4
2015-11-04T02:41:24.864Z,90.6
2015-11-04T02:42:24.789Z,89.9
2015-11-04T02:43:24.729Z,90.4
2015-11-04T02:44:24.686Z,91.6
2015-11-04T02:45:24.626Z,92.1
2015-11-04T02:46:24.550Z,91.8
2015-11-04T02:47:24.506Z,91.4
2015-11-04T02:48:24.478Z,91
2015-11-04T02:49:24.387Z,91
2015-11-04T02:50:24.327Z,91.3
2015-11-04T02:51:24.252Z,91.5
2015-11-04T02:52:24.222Z,90.6
2015-11-04T02:53:24.382Z,91.4
2015-11-04T02:54:24.088Z,92.1
2015-11-04T02:55:24.013Z,93
2015-11-04T02:56:23.969Z,92.6
2015-11-04T02:57:23.924Z,92.2
2015-11-04T02:58:24.078Z,92
2015-11-04T02:59:23.081Z,92
2015-11-04T03:00:23.959Z,91.7
2015-11-04T03:01:23.664Z,91.4
2015-11-04T03:02:23.620Z,91.9
2015-11-04T03:03:23.560Z,92.4
2015-11-04T03:04:22.751Z,92.7
2015-11-04T03:05:23.441Z,93
2015-11-04T03:06:23.381Z,92.9
2015-11-04T03:07:23.540Z,92.7
2015-11-04T03:08:23.261Z,93
2015-11-04T03:09:23.202Z,92.3
2015-11-04T03:10:23.142Z,92.1
2015-11-04T03:11:23.082Z,93.3
2015-11-04T03:12:23.022Z,93
2015-11-04T03:13:22.994Z,93.7
2015-11-04T03:14:22.903Z,94
2015-11-04T03:15:22.843Z,94
2015-11-04T03:16:22.799Z,93.4
2015-11-04T03:17:22.724Z,92.7
2015-11-04T03:18:22.679Z,92
2015-11-04T03:19:22.854Z,92.3
2015-11-04T03:20:22.576Z,92.9
2015-11-04T03:21:22.501Z,93.2
2015-11-04T03:22:22.441Z,93.3
2015-11-04T03:23:22.381Z,93.4
2015-11-04T03:24:22.321Z,93.3
2015-11-04T03:25:22.261Z,93
2015-11-04T03:26:22.217Z,93.1
2015-11-04T03:27:22.139Z,93.1
2015-11-04T03:28:22.080Z,93.1
2015-11-04T03:29:22.020Z,92.8
2015-11-04T03:30:21.975Z,93.1
2015-11-04T03:31:21.900Z,93.6
2015-11-04T03:32:21.856Z,93.9
2015-11-04T03:33:21.796Z,93.9
2015-11-04T03:34:21.736Z,93.5
2015-11-04T03:35:21.692Z,93.2
2015-11-04T03:36:21.601Z,92.9
2015-11-04T03:37:21.557Z,93.2
2015-11-04T03:38:21.498Z,93.2
2015-11-04T03:39:21.437Z,93.2
2015-11-04T03:40:21.378Z,93.3
2015-11-04T03:41:21.334Z,93
2015-11-04T03:42:21.493Z,92.5
2015-11-04T03:43:21.214Z,92.3
2015-11-04T03:44:21.139Z,91.9
2015-11-04T03:45:21.094Z,91.4
2015-11-04T03:46:21.066Z,91.3
2015-11-04T03:47:20.976Z,91.5
2015-11-04T03:48:20.931Z,91.9
2015-11-04T03:49:20.856Z,92.4
2015-11-04T03:50:20.795Z,92.9
2015-11-04T03:51:20.737Z,93.4
2015-11-04T03:52:20.676Z,93.5
2015-11-04T03:53:20.632Z,93.8
2015-11-04T03:54:20.572Z,94
2015-11-04T03:55:20.512Z,93.7
2015-11-04T03:56:20.437Z,93.9
2015-11-04T03:57:20.409Z,93.5
2015-11-04T03:58:20.334Z,93.3
2015-11-04T03:59:20.274Z,93.5
2015-11-04T04:00:20.214Z,93.6
2015-11-04T04:01:20.154Z,93.9
2015-11-04T04:02:20.095Z,93.9
2015-11-04T04:03:20.050Z,93.6
2015-11-04T04:04:19.991Z,93.8
2015-11-04T04:05:19.931Z,94
2015-11-04T04:06:19.871Z,93.6
2015-11-04T04:07:19.811Z,93.2
2015-11-04T04:08:19.752Z,93
2015-11-04T04:09:19.691Z,92.8
2015-11-04T04:10:19.632Z,93.5
2015-11-04T04:11:19.572Z,93.9
2015-11-04T04:12:19.747Z,94.4
2015-11-04T04:13:19.469Z,95
2015-11-04T04:14:19.408Z,94.5
2015-11-04T04:15:19.349Z,93.9
2015-11-04T04:16:19.289Z,93.6
2015-11-04T04:17:19.227Z,93.5
2015-11-04T04:18:19.167Z,93.2
2015-11-04T04:19:19.872Z,93.4
2015-11-04T04:20:19.796Z,93.8
2015-11-04T04:21:20.252Z,95.1
2015-11-04T04:22:19.896Z,95.1
2015-11-04T04:23:20.883Z,94.4
2015-11-04T04:24:19.057Z,94.5
2015-11-04T04:25:18.857Z,94.3
2015-11-04T04:26:20.001Z,93.7
2015-11-04T04:27:20.113Z,93.4
2015-11-04T04:28:19.491Z,93.3
2015-11-04T04:30:19.027Z,93
2015-11-04T04:31:18.421Z,93.2
2015-11-04T04:32:32.504Z,93.4
2015-11-04T04:33:18.942Z,93.6
2015-11-04T04:34:18.273Z,94
2015-11-04T04:35:18.197Z,94.1
2015-11-04T04:36:18.153Z,93.8
2015-11-04T04:37:18.078Z,93.8
2015-11-04T04:38:18.034Z,93.5
2015-11-04T04:39:17.974Z,93.1
2015-11-04T04:40:18.196Z,93
2015-11-04T04:43:19.204Z,94.1
2015-11-04T04:44:17.925Z,94.2
2015-11-04T04:45:17.631Z,94
2015-11-04T04:46:18.242Z,93.2
2015-11-04T04:48:17.514Z,93
2015-11-04T04:49:17.439Z,93
2015-11-04T04:50:31.707Z,94.6
2015-11-04T04:51:17.287Z,94.7
2015-11-04T04:52:17.228Z,95.1
2015-11-04T04:53:31.481Z,95
2015-11-04T04:54:17.187Z,94.8
2015-11-04T04:55:17.096Z,94.3
2015-11-04T04:57:16.992Z,93.9
2015-11-04T04:58:16.901Z,94
2015-11-04T04:59:16.826Z,93.6
2015-11-04T05:00:16.766Z,93.2
2015-11-04T05:01:16.565Z,93.3
2015-11-04T05:02:16.662Z,94
2015-11-04T05:03:16.602Z,94.3
2015-11-04T05:04:16.542Z,94.6
2015-11-04T05:05:16.483Z,94.7
2015-11-04T05:06:16.422Z,94.6
2015-11-04T05:07:16.378Z,94.9
2015-11-04T05:08:16.319Z,95.3
2015-11-04T05:09:16.275Z,95.4
2015-11-04T05:10:16.200Z,95
2015-11-04T05:11:16.139Z,95.3
2015-11-04T05:12:16.079Z,95.4
2015-11-04T05:13:16.020Z,95.3
2015-11-04T05:14:15.975Z,94.8
2015-11-04T05:15:15.916Z,94.7
2015-11-04T05:16:15.856Z,94.3
2015-11-04T05:17:15.796Z,94.4
2015-11-04T05:18:15.733Z,95
2015-11-04T05:19:15.674Z,95.4
2015-11-04T05:20:15.630Z,95.8
2015-11-04T05:21:15.788Z,96.3
2015-11-04T05:22:15.494Z,96.6
2015-11-04T05:23:15.435Z,96.5
2015-11-04T05:24:15.610Z,96.5
2015-11-04T05:25:15.347Z,96.1
2015-11-04T05:26:15.271Z,95.7
2015-11-04T05:27:15.212Z,95
2015-11-04T05:28:15.151Z,95.1
2015-11-04T05:29:15.092Z,95
2015-11-04T05:30:15.048Z,94.7
2015-11-04T05:31:15.207Z,94.7
2015-11-04T05:32:14.928Z,94.7
2015-11-04T05:33:14.868Z,94.8
2015-11-04T05:34:14.809Z,95.1
2015-11-04T05:35:14.749Z,95.6
2015-11-04T05:36:14.690Z,94.9
2015-11-04T05:37:14.645Z,95
2015-11-04T05:38:14.585Z,95.7
2015-11-04T05:39:14.526Z,95.9
2015-11-04T05:40:14.465Z,95.6
2015-11-04T05:41:14.406Z,95.3
2015-11-04T05:42:14.362Z,95.5
2015-11-04T05:43:14.302Z,95.2
2015-11-04T05:44:14.242Z,95
2015-11-04T05:45:14.167Z,95
2015-11-04T05:46:14.123Z,95.3
2015-11-04T05:47:14.067Z,95.5
2015-11-04T05:48:14.008Z,95.5
2015-11-04T05:49:13.948Z,96.2
2015-11-04T05:50:13.903Z,96.3
2015-11-04T05:51:13.844Z,95.9
2015-11-04T05:52:13.785Z,95.8
2015-11-04T05:53:13.741Z,95.4
2015-11-04T05:54:13.664Z,95.9
2015-11-04T05:55:13.605Z,95.7
2015-11-04T05:56:13.545Z,95.7
2015-11-04T05:57:13.486Z,95.4
2015-11-04T05:58:13.441Z,95.9
2015-11-04T05:59:13.383Z,95.7
2015-11-04T06:00:13.323Z,96.2
2015-11-04T06:01:13.263Z,96
2015-11-04T06:02:13.202Z,96.3
2015-11-04T06:03:13.158Z,95.7
2015-11-04T06:04:13.083Z,96.3
2015-11-04T06:05:13.024Z,96.4
2015-11-04T06:06:12.964Z,96.2
2015-11-04T06:07:12.920Z,95.7
2015-11-04T06:08:12.860Z,95.5
2015-11-04T06:09:12.800Z,95.1
2015-11-04T06:10:12.741Z,94.8
2015-11-04T06:11:12.680Z,95.2
2015-11-04T06:12:12.636Z,95.6
2015-11-04T06:13:12.560Z,96.3
2015-11-04T06:14:12.533Z,96.5
2015-11-04T06:15:12.457Z,96.9
2015-11-04T06:16:12.397Z,97.1
2015-11-04T06:17:12.335Z,96.4
2015-11-04T06:18:12.274Z,96.4
2015-11-04T06:19:12.215Z,96.5
2015-11-04T06:20:12.155Z,96.6
2015-11-04T06:21:12.096Z,96.7
2015-11-04T06:22:12.051Z,97
2015-11-04T06:23:12.024Z,96.9
2015-11-04T06:24:11.932Z,96.3
2015-11-04T06:25:11.858Z,96.5
2015-11-04T06:26:11.784Z,96.3
2015-11-04T06:27:11.710Z,96.5
2015-11-04T06:28:11.636Z,96.1
2015-11-04T06:29:11.577Z,96.2
2015-11-04T06:30:11.497Z,95.9
2015-11-04T06:31:11.432Z,95.7
2015-11-04T06:32:11.368Z,95.4
2015-11-04T06:33:11.349Z,94.9
2015-11-04T06:34:11.254Z,94.6
2015-11-04T06:35:11.192Z,95
2015-11-04T06:36:11.130Z,95.2
2015-11-04T06:37:11.068Z,95.4
2015-11-04T06:38:11.008Z,95.5
2015-11-04T06:39:10.962Z,95.4
2015-11-04T06:40:10.901Z,95.6
2015-11-04T06:41:10.841Z,95.4
2015-11-04T06:42:10.797Z,95.4
2015-11-04T06:43:10.721Z,95.4
2015-11-04T06:44:10.895Z,95.3
2015-11-04T06:45:10.601Z,95.3
2015-11-04T06:46:10.557Z,94.8
2015-11-04T06:47:10.731Z,94.9
2015-11-04T06:48:10.436Z,95.2
2015-11-04T06:49:10.610Z,95.3
2015-11-04T06:50:10.331Z,95.1
2015-11-04T06:51:10.272Z,95.4
2015-11-04T06:52:10.211Z,95.5
2015-11-04T06:53:10.152Z,95.8
2015-11-04T06:54:10.092Z,95.8
2015-11-04T06:55:10.049Z,95.3
2015-11-04T06:56:09.973Z,94.9
2015-11-04T06:57:09.929Z,94.7
2015-11-04T06:58:09.869Z,95.4
2015-11-04T06:59:09.810Z,95.5
2015-11-04T07:00:09.750Z,95.5
2015-11-04T07:01:09.688Z,95.9
2015-11-04T07:02:09.627Z,96.2
2015-11-04T07:03:09.568Z,96.3
2015-11-04T07:04:09.538Z,96.3
2015-11-04T07:05:09.463Z,96.1
2015-11-04T07:06:09.404Z,96.1
2015-11-04T07:07:09.344Z,96.1
2015-11-04T07:08:09.299Z,96.1
2015-11-04T07:09:09.224Z,96.3
2015-11-04T07:10:09.165Z,96.4
2015-11-04T07:11:09.121Z,96.3
2015-11-04T07:12:09.046Z,95.8
2015-11-04T07:13:09.235Z,95.3
2015-11-04T07:14:08.941Z,95.9
2015-11-04T07:15:08.912Z,95.7
2015-11-04T07:16:08.822Z,96
2015-11-04T07:17:08.777Z,95.9
2015-11-04T07:18:08.733Z,96.4
2015-11-04T07:19:08.892Z,96.4
2015-11-04T07:20:08.582Z,95.9
2015-11-04T07:21:08.538Z,95.2
2015-11-04T07:22:08.479Z,95.3
2015-11-04T07:23:08.419Z,94.8
2015-11-04T07:24:08.375Z,95
2015-11-04T07:25:08.315Z,95.5
2015-11-04T07:26:08.256Z,96.1
2015-11-04T07:27:08.196Z,95.9
2015-11-04T07:28:08.136Z,95.4
2015-11-04T07:29:08.076Z,95
2015-11-04T07:30:08.032Z,95.3
2015-11-04T07:31:07.972Z,95.7
2015-11-04T07:32:07.928Z,96
2015-11-04T07:33:07.853Z,96.3
2015-11-04T07:34:07.808Z,96.5
2015-11-04T07:35:07.734Z,96.5
2015-11-04T07:36:07.704Z,96.7
2015-11-04T07:37:07.629Z,96.1
2015-11-04T07:38:07.569Z,95.4
2015-11-04T07:39:07.509Z,95.5
2015-11-04T07:40:07.450Z,95.4
2015-11-04T07:41:07.390Z,95.5
2015-11-04T07:42:07.345Z,95.2
2015-11-04T07:43:07.286Z,95.1
2015-11-04T07:44:07.226Z,94.7
2015-11-04T07:45:07.183Z,94.6
2015-11-04T07:46:07.123Z,93.8
2015-11-04T07:47:06.906Z,94.5
2015-11-04T07:48:07.003Z,95
2015-11-04T07:49:06.943Z,95.6
2015-11-04T07:50:07.117Z,95.5
2015-11-04T07:51:06.839Z,95.6
2015-11-04T07:52:06.780Z,95.4
2015-11-04T07:53:05.985Z,95.1
2015-11-04T07:54:06.675Z,95.2
2015-11-04T07:55:06.615Z,95
2015-11-04T07:56:06.555Z,94.9
2015-11-04T07:57:06.496Z,94.7
2015-11-04T07:58:06.436Z,94.6
2015-11-04T07:59:06.377Z,94.8
2015-11-04T08:00:06.317Z,95
2015-11-04T08:01:06.272Z,94.8
2015-11-04T08:02:06.212Z,95.1
2015-11-04T08:03:06.152Z,95.2
2015-11-04T08:04:06.094Z,94.8
2015-11-04T08:05:06.033Z,94.7
2015-11-04T08:06:05.990Z,94.7
2015-11-04T08:07:05.929Z,94
2015-11-04T08:08:05.870Z,94
2015-11-04T08:09:05.807Z,95.1
2015-11-04T08:10:05.763Z,95.3
2015-11-04T08:11:05.703Z,95.1
2015-11-04T08:12:05.643Z,95.2
2015-11-04T08:13:05.584Z,95.1
2015-11-04T08:14:05.524Z,95.2
2015-11-04T08:15:05.480Z,95.6
2015-11-04T08:16:05.435Z,95.3
2015-11-04T08:17:05.359Z,94
2015-11-04T08:18:05.300Z,94
2015-11-04T08:19:05.257Z,94.7
2015-11-04T08:20:05.415Z,93.8
2015-11-04T08:21:05.137Z,92.6
2015-11-04T08:22:05.076Z,93.5
2015-11-04T08:23:05.033Z,93.6
2015-11-04T08:24:04.973Z,92.6
2015-11-04T08:25:04.914Z,94.4
2015-11-04T08:26:04.853Z,93.6
2015-11-04T08:27:04.809Z,92.7
2015-11-04T08:28:04.750Z,92.6
2015-11-04T08:29:04.690Z,92.4
2015-11-04T08:30:04.631Z,91.9
2015-11-04T08:31:04.586Z,89.1
2015-11-04T08:32:04.526Z,91.4
2015-11-04T08:33:04.467Z,92
2015-11-04T08:34:04.406Z,92.1
2015-11-04T08:35:04.362Z,92.3
2015-11-04T08:36:04.303Z,91.9
2015-11-04T08:37:04.243Z,91.4
2015-11-04T08:38:04.199Z,92.1
2015-11-04T08:39:04.123Z,91.8
2015-11-04T08:40:04.094Z,90.5
2015-11-04T08:41:04.019Z,90.1
2015-11-04T08:42:03.976Z,89.7
2015-11-04T08:43:03.916Z,89
2015-11-04T08:44:03.856Z,87.2
2015-11-04T08:45:03.812Z,88.4
2015-11-04T08:46:03.752Z,88.5
2015-11-04T08:47:03.690Z,87.9
2015-11-04T08:48:03.646Z,87.9
2015-11-04T08:49:03.586Z,88
2015-11-04T08:50:03.542Z,88
2015-11-04T08:51:03.701Z,89.1
2015-11-04T08:52:03.422Z,86.5
2015-11-04T08:53:03.363Z,86
2015-11-04T08:54:03.319Z,87.9
2015-11-04T08:55:03.477Z,88.4
2015-11-04T08:56:03.199Z,87.6
2015-11-04T08:57:03.156Z,88.6
2015-11-04T08:58:03.080Z,89.3
2015-11-04T08:59:03.036Z,88.8
2015-11-04T09:00:02.975Z,89.1
2015-11-04T09:01:02.931Z,88.2
2015-11-04T09:02:02.872Z,87.7
2015-11-04T09:03:02.811Z,88.6
2015-11-04T09:04:02.769Z,89
2015-11-04T09:05:02.724Z,88.9
2015-11-04T09:06:02.664Z,87.8
2015-11-04T09:07:02.602Z,88.2
2015-11-04T09:08:02.542Z,87.9
2015-11-04T09:09:02.498Z,89
2015-11-04T09:10:02.438Z,89
2015-11-04T09:11:02.394Z,88.9
2015-11-04T09:12:02.319Z,87.6
2015-11-04T09:13:02.291Z,87.3
2015-11-04T09:14:02.214Z,88.3
2015-11-04T09:15:02.171Z,89
2015-11-04T09:16:02.111Z,87.3
2015-11-04T09:17:02.068Z,86.1
2015-11-04T09:18:02.009Z,86.5
2015-11-04T09:19:01.948Z,87.2
2015-11-04T09:20:01.890Z,87.3
2015-11-04T09:21:01.845Z,86.9
2015-11-04T09:22:01.785Z,86.3
2015-11-04T09:23:01.726Z,87.3
2015-11-04T09:24:01.698Z,86.3
2015-11-04T09:25:01.622Z,86
2015-11-04T09:26:01.562Z,86.7
2015-11-04T09:27:01.502Z,86
2015-11-04T09:28:01.458Z,86.4
2015-11-04T09:29:01.415Z,87.3
2015-11-04T09:30:01.354Z,86.9
2015-11-04T09:31:01.294Z,86.9
2015-11-04T09:32:01.234Z,86.8
2015-11-04T09:33:01.175Z,88.2
2015-11-04T09:34:01.131Z,87.5
2015-11-04T09:35:01.087Z,85.9
2015-11-04T09:36:01.026Z,86.8
2015-11-04T09:37:00.983Z,85.7
2015-11-04T09:38:00.907Z,85.3
2015-11-04T09:39:00.864Z,85.9
2015-11-04T09:40:00.804Z,86
2015-11-04T09:41:00.744Z,85.3
2015-11-04T09:42:00.700Z,84.9
2015-11-04T09:43:00.640Z,86
2015-11-04T09:44:00.581Z,85.6
2015-11-04T09:45:00.536Z,85.7
2015-11-04T09:46:00.476Z,86.2
2015-11-04T09:47:00.432Z,84.4
2015-11-04T09:48:00.372Z,84.2
2015-11-04T09:49:00.328Z,86
2015-11-04T09:50:00.269Z,87.4
2015-11-04T09:51:00.225Z,86.5
2015-11-04T09:52:00.149Z,86.9
2015-11-04T09:53:00.105Z,85.8
2015-11-04T09:54:00.061Z,86.4
2015-11-04T09:55:00.000Z,87.1
2015-11-04T09:55:59.941Z,87.1
2015-11-04T09:56:59.897Z,87.3
2015-11-04T09:57:59.852Z,87.7
2015-11-04T09:58:59.774Z,87.5
2015-11-04T09:59:59.761Z,87.4
2015-11-04T10:00:59.671Z,87.3
2015-11-04T10:01:59.627Z,87.6
2015-11-04T10:02:59.582Z,88.2
2015-11-04T10:03:59.507Z,88.5
2015-11-04T10:04:59.463Z,88.6
2015-11-04T10:05:59.419Z,88.8
2015-11-04T10:06:59.359Z,88.1
2015-11-04T10:07:59.299Z,87.6
2015-11-04T10:08:59.255Z,88.5
2015-11-04T10:09:59.195Z,89.1
2015-11-04T10:10:59.136Z,88.5
2015-11-04T10:11:59.092Z,89
2015-11-04T10:12:59.032Z,89.5
2015-11-04T10:13:58.987Z,88.9
2015-11-04T10:14:58.927Z,89.3
2015-11-04T10:15:58.883Z,88.9
2015-11-04T10:16:58.824Z,89.5
2015-11-04T10:17:58.764Z,89.5
2015-11-04T10:18:58.720Z,88.8
2015-11-04T10:19:58.661Z,88.5
2015-11-04T10:20:58.632Z,86.9
2015-11-04T10:21:58.557Z,87.5
2015-11-04T10:22:58.512Z,86.5
2015-11-04T10:23:58.452Z,86.6
2015-11-04T10:24:58.407Z,85.8
2015-11-04T10:25:58.365Z,84.7
2015-11-04T10:26:58.288Z,84.8
2015-11-04T10:27:58.245Z,85.8
2015-11-04T10:28:58.185Z,85.7
2015-11-04T10:29:58.141Z,84.6
2015-11-04T10:30:58.081Z,84.8
2015-11-04T10:31:58.037Z,85.5
2015-11-04T10:32:57.243Z,84.3
2015-11-04T10:33:57.917Z,84.9
2015-11-04T10:34:58.092Z,85.3
2015-11-04T10:35:57.813Z,84.9
2015-11-04T10:36:57.753Z,83.6
2015-11-04T10:37:57.709Z,85.1
2015-11-04T10:38:57.651Z,83.7
2015-11-04T10:39:57.606Z,84.2
2015-11-04T10:40:57.546Z,84.9
2015-11-04T10:41:57.502Z,83.6
2015-11-04T10:42:57.442Z,83.9
2015-11-04T10:43:57.414Z,84.3
2015-11-04T10:44:57.338Z,83.4
2015-11-04T10:45:57.294Z,82.5
2015-11-04T10:46:57.234Z,84
2015-11-04T10:47:57.189Z,82.9
2015-11-04T10:48:57.364Z,82.7
2015-11-04T10:49:57.071Z,83
2015-11-04T10:50:57.058Z,81.5
2015-11-04T10:51:56.997Z,81.6
2015-11-04T10:52:56.938Z,80.6
2015-11-04T10:53:56.703Z,80.9
2015-11-04T10:54:56.816Z,80.9
2015-11-04T10:55:56.772Z,80.1
2015-11-04T10:56:56.712Z,80.8
2015-11-04T10:57:56.886Z,81.6
2015-11-04T10:58:56.623Z,82.2
2015-11-04T10:59:56.547Z,82.6
2015-11-04T11:00:56.504Z,81.7
2015-11-04T11:01:56.460Z,82
2015-11-04T11:02:56.400Z,82.4
2015-11-04T11:03:56.340Z,82.1
2015-11-04T11:04:56.296Z,81.8
2015-11-04T11:05:56.236Z,81.4
2015-11-04T11:06:56.192Z,82.1
2015-11-04T11:07:56.147Z,81.8
2015-11-04T11:08:56.088Z,81.9
2015-11-04T11:09:56.028Z,80.8
2015-11-04T11:10:55.985Z,81.5
2015-11-04T11:11:55.924Z,80.7
2015-11-04T11:12:55.881Z,80.7
2015-11-04T11:13:55.836Z,82.2
2015-11-04T11:14:55.777Z,81.9
2015-11-04T11:15:55.717Z,81.9
2015-11-04T11:16:55.672Z,81.7
2015-11-04T11:17:55.644Z,81.5
2015-11-04T11:18:55.568Z,81
2015-11-04T11:19:55.524Z,80.3
2015-11-04T11:20:55.465Z,81.6
2015-11-04T11:21:55.421Z,80.6
2015-11-04T11:22:55.361Z,79.7
2015-11-04T11:23:55.316Z,79.7
2015-11-04T11:24:55.257Z,78.1
2015-11-04T11:25:55.213Z,79.8
2015-11-04T11:26:55.169Z,78.8
2015-11-04T11:27:55.109Z,79.7
2015-11-04T11:28:55.065Z,81.7
2015-11-04T11:29:55.005Z,78.5
2015-11-04T11:30:54.960Z,77.2
2015-11-04T11:31:54.917Z,79.1
2015-11-04T11:32:54.857Z,79.1
2015-11-04T11:33:54.798Z,78.9
2015-11-04T11:34:54.754Z,78.9
2015-11-04T11:35:54.710Z,77.9
2015-11-04T11:36:54.649Z,76.6
2015-11-04T11:37:54.605Z,76.5
2015-11-04T11:38:54.545Z,77
2015-11-04T11:39:54.517Z,77.1
2015-11-04T11:40:53.613Z,77
2015-11-04T11:41:54.398Z,76.5
2015-11-04T11:42:54.587Z,76.1
2015-11-04T11:43:54.294Z,78
2015-11-04T11:44:54.249Z,77.4
2015-11-04T11:45:54.203Z,76.5
2015-11-04T11:46:54.143Z,75.2
2015-11-04T11:47:54.098Z,76
2015-11-04T11:48:54.039Z,75.8
2015-11-04T11:49:53.994Z,75.1
2015-11-04T11:50:53.934Z,75.2
2015-11-04T11:51:53.890Z,74.6
2015-11-04T11:52:53.847Z,74.3
2015-11-04T11:53:53.803Z,74.1
2015-11-04T11:54:53.742Z,73.4
2015-11-04T11:55:53.698Z,74.7
2015-11-04T11:56:53.653Z,75.8
2015-11-04T11:57:53.814Z,71.9
2015-11-04T11:58:53.534Z,72.2
2015-11-04T11:59:53.506Z,72.8
2015-11-04T12:00:53.431Z,70.9
2015-11-04T12:01:53.386Z,70.8
2015-11-04T12:02:53.327Z,72.2
2015-11-04T12:03:53.283Z,72.4
2015-11-04T12:04:53.223Z,72.8
2015-11-04T12:05:53.194Z,74
2015-11-04T12:06:53.135Z,72
2015-11-04T12:07:53.091Z,71.7
2015-11-04T12:08:53.030Z,72.6
2015-11-04T12:09:52.987Z,71.6
2015-11-04T12:10:52.927Z,71.1
2015-11-04T12:11:52.883Z,69.8
2015-11-04T12:12:52.823Z,71.6
2015-11-04T12:13:53.014Z,70
2015-11-04T12:14:52.720Z,69
2015-11-04T12:15:52.691Z,68.9
2015-11-04T12:16:52.631Z,68.5
2015-11-04T12:17:52.587Z,67.2
2015-11-04T12:18:52.527Z,64.4
2015-11-04T12:19:52.483Z,64.4
2015-11-04T12:20:52.455Z,61.8
2015-11-04T12:21:52.394Z,60.3
2015-11-04T12:22:52.351Z,59
2015-11-04T12:23:52.291Z,57.1
2015-11-04T12:24:52.247Z,57.1
2015-11-04T12:25:52.202Z,57.6
2015-11-04T12:26:52.159Z,56.2
2015-11-04T12:27:52.114Z,53.9
2015-11-04T12:28:52.101Z,52.3
2015-11-04T12:29:52.026Z,52
2015-11-04T12:30:52.201Z,53.5
2015-11-04T12:31:51.938Z,51.7
2015-11-04T12:32:51.878Z,51.2
2015-11-04T12:33:51.834Z,49.4
2015-11-04T12:34:51.805Z,49
2015-11-04T12:35:51.746Z,49.5
2015-11-04T12:36:51.718Z,51.1
2015-11-04T12:37:51.657Z,52.5
2015-11-04T12:38:51.629Z,52.9
2015-11-04T12:39:51.568Z,53.8
2015-11-04T12:40:51.524Z,54.6
2015-11-04T12:41:51.481Z,54.9
2015-11-04T12:42:51.436Z,55.8
2015-11-04T12:43:51.389Z,56.2
2015-11-04T12:44:51.345Z,57
2015-11-04T12:45:51.301Z,55.8
2015-11-04T12:46:51.257Z,55.6
2015-11-04T12:47:51.212Z,55.8
2015-11-04T12:48:51.168Z,54.8
2015-11-04T12:49:51.343Z,57
2015-11-04T12:50:51.065Z,59.3
2015-11-04T12:51:50.287Z,60.1
2015-11-04T12:52:50.976Z,59.1
2015-11-04T12:53:50.932Z,58.8
2015-11-04T12:54:50.889Z,58.5
2015-11-04T12:55:50.860Z,56.9
2015-11-04T12:56:50.800Z,55.5
2015-11-04T12:57:50.757Z,54.1
2015-11-04T12:58:50.723Z,53.5
2015-11-04T12:59:50.647Z,54.2
2015-11-04T13:00:50.618Z,54.3
2015-11-04T13:01:50.559Z,52.3
2015-11-04T13:02:50.515Z,49.8
2015-11-04T13:03:50.486Z,50.2
2015-11-04T13:04:50.426Z,49.7
2015-11-04T13:05:50.382Z,49.2
2015-11-04T13:06:50.338Z,49.1
2015-11-04T13:07:50.310Z,48.1
2015-11-04T13:08:50.250Z,48.3
2015-11-04T13:09:50.222Z,47.8
2015-11-04T13:10:50.178Z,48.4
2015-11-04T13:11:50.117Z,48.8
2015-11-04T13:12:50.074Z,50.1
2015-11-04T13:13:50.029Z,50.3
2015-11-04T13:14:49.986Z,45.4
2015-11-04T13:15:49.941Z,44.9
2015-11-04T13:16:49.912Z,46.9
2015-11-04T13:17:49.853Z,48.1
2015-11-04T13:18:49.808Z,50.2
2015-11-04T13:19:49.749Z,50.9
2015-11-04T13:20:49.705Z,52.2
2015-11-04T13:21:49.661Z,52.3
2015-11-04T13:22:49.616Z,51.9
2015-11-04T13:23:49.573Z,50.4
2015-11-04T13:24:49.529Z,49.6
2015-11-04T13:25:49.483Z,49
2015-11-04T13:26:49.440Z,48.4
2015-11-04T13:27:49.397Z,49.2
2015-11-04T13:28:49.352Z,48.2